Time;durP1;ratioP1;P1;durP2;ratioP2;P2;SDS_P1;SDS_P2;PMS_P1;PMS_P2;Temp;Humidity;BMP_temperature;BMP_pressure;BME280_temperature;BME280_humidity;BME280_pressure;Samples;Min_cycle;Max_cycle;Signal;HPM_P1;HPM_P2
2023/07/27 00:01:04;;;;;;;6.38;5.78;;;24.10;90.00;;;;;;4980339;28;20045;-70
2023/07/27 00:03:30;;;;;;;5.40;4.90;;;24.10;90.10;;;;;;4981352;28;20042;-69
2023/07/27 00:05:55;;;;;;;6.10;5.15;;;24.10;90.10;;;;;;4981419;28;20041;-69
2023/07/27 00:08:21;;;;;;;6.30;5.47;;;24.00;90.10;;;;;;4981033;28;20092;-70
2023/07/27 00:10:47;;;;;;;5.20;4.80;;;24.00;90.20;;;;;;4981768;28;20034;-70
2023/07/27 00:13:13;;;;;;;5.18;4.75;;;24.00;90.20;;;;;;4979930;28;20026;-71
2023/07/27 00:15:39;;;;;;;5.47;4.88;;;24.00;90.40;;;;;;4980150;28;20045;-72
2023/07/27 00:18:05;;;;;;;6.35;5.18;;;24.00;90.10;;;;;;4983173;28;20054;-71
2023/07/27 00:20:31;;;;;;;5.47;4.97;;;24.00;90.20;;;;;;4979381;28;20093;-71
2023/07/27 00:22:57;;;;;;;6.03;4.60;;;24.00;90.40;;;;;;4979764;28;20046;-70
2023/07/27 00:25:23;;;;;;;5.65;5.15;;;24.00;90.40;;;;;;4984784;28;20035;-70
2023/07/27 00:27:49;;;;;;;5.65;5.10;;;24.00;90.10;;;;;;4983680;28;20637;-72
2023/07/27 00:30:15;;;;;;;10.48;5.30;;;23.90;90.00;;;;;;4983555;28;20036;-69
2023/07/27 00:32:40;;;;;;;5.85;4.82;;;23.90;90.10;;;;;;4983464;28;20030;-69
2023/07/27 00:35:07;;;;;;;5.95;4.85;;;23.90;90.00;;;;;;4986810;28;20045;-70
2023/07/27 00:37:33;;;;;;;6.57;5.05;;;23.90;90.10;;;;;;4985786;28;20035;-72
2023/07/27 00:39:59;;;;;;;5.82;5.22;;;23.90;90.10;;;;;;4982838;28;20591;-70
2023/07/27 00:42:24;;;;;;;5.63;5.13;;;23.90;90.10;;;;;;4983616;28;20057;-70
2023/07/27 00:44:50;;;;;;;6.10;4.80;;;23.90;90.10;;;;;;4983149;28;20121;-70
2023/07/27 00:47:16;;;;;;;5.32;4.80;;;23.80;90.00;;;;;;4984331;28;20116;-70
2023/07/27 00:49:43;;;;;;;7.22;4.85;;;23.80;90.10;;;;;;4983745;28;20035;-70
2023/07/27 00:52:09;;;;;;;5.55;4.95;;;23.80;90.10;;;;;;4982567;28;20532;-70
2023/07/27 00:54:35;;;;;;;5.47;4.97;;;23.80;90.10;;;;;;4982965;28;20034;-70
2023/07/27 00:57:03;;;;;;;6.88;4.80;;;23.80;90.40;;;;;;4984339;28;20038;-70
2023/07/27 00:59:29;;;;;;;6.43;5.05;;;23.80;90.10;;;;;;5014796;28;20034;-70
2023/07/27 01:01:56;;;;;;;5.43;4.93;;;23.70;90.10;;;;;;4996929;28;20027;-70
2023/07/27 01:04:22;;;;;;;5.32;4.82;;;23.70;90.10;;;;;;4984063;28;20046;-70
2023/07/27 01:06:48;;;;;;;5.63;4.93;;;23.70;90.00;;;;;;4983297;28;20426;-70
2023/07/27 01:09:14;;;;;;;6.00;5.03;;;23.70;90.10;;;;;;4983848;28;20033;-70
2023/07/27 01:11:51;;;;;;;5.85;5.35;;;23.70;90.20;;;;;;4981680;28;20038;-71
2023/07/27 01:14:40;;;;;;;5.93;4.93;;;23.70;90.30;;;;;;4983907;28;20038;-70
2023/07/27 01:17:12;;;;;;;6.57;5.00;;;23.70;90.00;;;;;;4983209;28;20050;-69
2023/07/27 01:20:05;;;;;;;5.70;5.20;;;23.60;90.10;;;;;;4984673;28;20053;-72
2023/07/27 01:22:31;;;;;;;6.70;4.95;;;23.60;90.10;;;;;;4985055;28;20409;-72
2023/07/27 01:25:25;;;;;;;6.55;5.15;;;23.60;90.20;;;;;;4982026;28;20674;-71
2023/07/27 01:28:00;;;;;;;6.10;5.10;;;23.60;90.20;;;;;;4983843;28;20536;-69
2023/07/27 01:30:28;;;;;;;5.20;4.72;;;23.60;90.30;;;;;;4978925;28;20042;-70
2023/07/27 01:33:10;;;;;;;5.65;5.15;;;23.70;90.30;;;;;;4979623;28;20117;-71
2023/07/27 01:35:48;;;;;;;6.00;5.32;;;23.70;90.10;;;;;;4982503;28;20121;-70
2023/07/27 01:38:14;;;;;;;5.57;5.07;;;23.70;90.10;;;;;;5014478;28;20058;-71
2023/07/27 01:40:42;;;;;;;6.10;5.30;;;23.60;90.00;;;;;;4981458;28;20130;-71
2023/07/27 01:43:10;;;;;;;6.70;5.25;;;23.60;89.90;;;;;;4981314;28;20061;-71
2023/07/27 01:45:39;;;;;;;6.03;4.95;;;23.50;89.90;;;;;;4981360;28;20041;-73
2023/07/27 01:48:07;;;;;;;6.18;5.57;;;23.50;89.70;;;;;;5013267;28;20180;-73
2023/07/27 01:50:34;;;;;;;6.28;5.65;;;23.40;89.70;;;;;;4988073;28;20038;-72
2023/07/27 01:53:01;;;;;;;7.20;5.82;;;23.30;89.70;;;;;;4981345;28;20523;-71
2023/07/27 01:55:29;;;;;;;6.07;5.47;;;23.30;89.90;;;;;;4981299;28;20038;-71
2023/07/27 01:57:59;;;;;;;6.18;5.30;;;23.30;90.00;;;;;;4980339;28;20046;-71
2023/07/27 02:00:27;;;;;;;6.40;5.75;;;23.30;90.10;;;;;;5012217;28;20741;-71
2023/07/27 02:02:54;;;;;;;9.57;6.30;;;23.30;90.20;;;;;;4981771;28;20039;-71
2023/07/27 02:05:21;;;;;;;7.63;5.78;;;23.30;90.00;;;;;;4984880;28;20050;-71
2023/07/27 02:07:48;;;;;;;6.28;5.68;;;23.30;90.10;;;;;;4984724;28;20038;-72
2023/07/27 02:10:17;;;;;;;6.40;5.80;;;23.30;90.10;;;;;;4980757;28;20037;-71
2023/07/27 02:12:48;;;;;;;7.15;5.50;;;23.30;90.30;;;;;;4980109;28;20101;-71
2023/07/27 02:15:26;;;;;;;6.38;5.57;;;23.30;90.30;;;;;;4981613;28;20505;-71
2023/07/27 02:18:02;;;;;;;7.30;5.95;;;23.30;90.30;;;;;;4981401;28;20054;-71
2023/07/27 02:20:33;;;;;;;6.80;5.80;;;23.30;90.20;;;;;;4980983;28;20038;-72
2023/07/27 02:23:03;;;;;;;6.28;5.68;;;23.20;90.20;;;;;;5012162;28;20368;-71
2023/07/27 02:25:29;;;;;;;8.38;5.90;;;23.20;90.30;;;;;;4996172;28;20126;-72
2023/07/27 02:27:55;;;;;;;6.55;5.90;;;23.20;90.30;;;;;;4980463;28;20031;-71
2023/07/27 02:30:22;;;;;;;6.47;5.80;;;23.20;90.30;;;;;;4985230;28;20045;-71
2023/07/27 02:32:47;;;;;;;7.53;5.85;;;23.30;90.50;;;;;;4984648;28;20030;-71
2023/07/27 02:35:14;;;;;;;6.35;5.63;;;23.30;90.50;;;;;;4979548;28;20130;-71
2023/07/27 02:37:44;;;;;;;6.90;6.10;;;23.40;90.40;;;;;;4984269;28;20158;-71
2023/07/27 02:40:10;;;;;;;7.85;6.30;;;23.40;90.40;;;;;;4981200;28;20523;-71
2023/07/27 02:42:36;;;;;;;7.75;5.68;;;23.40;90.30;;;;;;4980247;28;20038;-71
2023/07/27 02:45:02;;;;;;;9.05;6.22;;;23.40;90.30;;;;;;4985831;28;20042;-71
2023/07/27 02:47:34;;;;;;;6.82;6.00;;;23.40;90.20;;;;;;4979697;28;20039;-71
2023/07/27 02:50:00;;;;;;;6.93;5.97;;;23.40;90.30;;;;;;4967527;28;20181;-71
2023/07/27 02:52:26;;;;;;;6.70;5.90;;;23.30;90.20;;;;;;4980359;28;20177;-71
2023/07/27 02:54:52;;;;;;;6.75;5.80;;;23.40;90.30;;;;;;4984318;28;20501;-71
2023/07/27 02:57:19;;;;;;;7.10;5.95;;;23.30;90.40;;;;;;4981233;28;20100;-71
2023/07/27 02:59:49;;;;;;;6.65;5.63;;;23.40;90.40;;;;;;4965223;28;20046;-71
2023/07/27 03:02:15;;;;;;;7.93;5.97;;;23.40;90.50;;;;;;4979649;28;20552;-71
2023/07/27 03:04:42;;;;;;;7.18;5.75;;;23.40;90.50;;;;;;4982802;28;20097;-71
2023/07/27 03:07:09;;;;;;;7.15;5.40;;;23.40;90.50;;;;;;4980070;28;20034;-71
2023/07/27 03:09:36;;;;;;;5.95;5.35;;;23.50;90.60;;;;;;4982069;28;20034;-71
2023/07/27 03:12:02;;;;;;;5.95;5.45;;;23.50;90.60;;;;;;4980788;28;20085;-72
2023/07/27 03:14:28;;;;;;;7.75;5.32;;;23.50;90.60;;;;;;4983452;28;20038;-71
2023/07/27 03:16:54;;;;;;;7.30;6.00;;;23.50;90.50;;;;;;4979418;28;20116;-70
2023/07/27 03:19:20;;;;;;;6.63;5.80;;;23.50;90.50;;;;;;4966224;28;20031;-73
2023/07/27 03:21:48;;;;;;;7.22;6.40;;;23.50;90.30;;;;;;4977171;28;20049;-72
2023/07/27 03:24:16;;;;;;;8.95;6.70;;;23.50;90.10;;;;;;4981596;28;20521;-73
2023/07/27 03:26:43;;;;;;;7.18;6.50;;;23.40;90.10;;;;;;4979648;28;20035;-73
2023/07/27 03:29:09;;;;;;;9.45;6.68;;;23.40;90.10;;;;;;4981090;28;20062;-72
2023/07/27 03:31:35;;;;;;;7.07;6.38;;;23.40;90.10;;;;;;4978691;28;20038;-72
2023/07/27 03:34:01;;;;;;;9.82;7.13;;;23.50;90.20;;;;;;4983353;28;20046;-73
2023/07/27 03:36:27;;;;;;;7.32;6.57;;;23.50;90.30;;;;;;4966744;28;20080;-73
2023/07/27 03:38:53;;;;;;;7.88;6.53;;;23.50;90.20;;;;;;4964033;28;20034;-73
2023/07/27 03:41:19;;;;;;;8.07;6.60;;;23.40;90.10;;;;;;4981932;28;20153;-72
2023/07/27 03:43:45;;;;;;;9.02;6.07;;;23.50;90.10;;;;;;4979266;28;20509;-73
2023/07/27 03:46:11;;;;;;;7.82;6.10;;;23.50;90.10;;;;;;4980351;28;20069;-72
2023/07/27 03:48:37;;;;;;;6.65;5.95;;;23.50;90.20;;;;;;4983012;28;20069;-73
2023/07/27 03:51:03;;;;;;;9.88;6.35;;;23.50;90.30;;;;;;4983742;28;20050;-72
2023/07/27 03:53:30;;;;;;;6.40;5.80;;;23.50;90.40;;;;;;4979981;28;20042;-73
2023/07/27 03:55:56;;;;;;;6.32;5.57;;;23.50;90.40;;;;;;4982385;28;20057;-72
2023/07/27 03:58:22;;;;;;;6.95;6.03;;;23.50;90.40;;;;;;4982335;28;20039;-72
2023/07/27 04:00:48;;;;;;;8.18;6.63;;;23.50;90.40;;;;;;4978650;28;20088;-72
2023/07/27 04:03:14;;;;;;;8.18;6.13;;;23.50;90.50;;;;;;4979566;28;20190;-72
2023/07/27 04:05:40;;;;;;;7.05;6.13;;;23.50;90.50;;;;;;4982260;28;20607;-72
2023/07/27 04:08:06;;;;;;;6.60;5.43;;;23.50;90.50;;;;;;4977243;28;20034;-71
2023/07/27 04:10:32;;;;;;;7.03;6.18;;;23.50;90.40;;;;;;4978099;28;20741;-71
2023/07/27 04:12:59;;;;;;;8.25;6.35;;;23.50;90.30;;;;;;4961092;28;20088;-72
2023/07/27 04:15:25;;;;;;;6.57;5.68;;;23.60;90.40;;;;;;4980931;28;20065;-73
2023/07/27 04:17:50;;;;;;;6.53;5.93;;;23.60;90.50;;;;;;4979222;28;20051;-72
2023/07/27 04:20:16;;;;;;;6.68;6.03;;;23.60;90.50;;;;;;4982241;28;20041;-72
2023/07/27 04:22:42;;;;;;;6.82;5.53;;;23.60;90.40;;;;;;4979670;28;20081;-70
2023/07/27 04:25:09;;;;;;;6.22;5.63;;;23.60;90.30;;;;;;4982053;28;20030;-71
2023/07/27 04:27:34;;;;;;;8.35;6.45;;;23.60;90.30;;;;;;4977076;28;20437;-70
2023/07/27 04:30:01;;;;;;;7.95;6.60;;;23.60;90.10;;;;;;4979128;28;20033;-70
2023/07/27 04:32:27;;;;;;;8.27;6.55;;;23.60;90.00;;;;;;4979628;28;20035;-73
2023/07/27 04:34:53;;;;;;;7.50;6.70;;;23.60;90.00;;;;;;4979004;28;20062;-72
2023/07/27 04:37:20;;;;;;;8.70;6.88;;;23.60;90.00;;;;;;4979199;28;20062;-73
2023/07/27 04:39:46;;;;;;;8.40;6.72;;;23.60;90.00;;;;;;4979328;28;20073;-72
2023/07/27 04:42:12;;;;;;;7.47;6.53;;;23.50;90.10;;;;;;4967851;28;20484;-73
2023/07/27 04:44:38;;;;;;;8.38;6.88;;;23.50;90.20;;;;;;4979637;28;20042;-72
2023/07/27 04:47:04;;;;;;;9.80;6.32;;;23.50;90.20;;;;;;4980465;28;20049;-72
2023/07/27 04:49:31;;;;;;;6.90;6.10;;;23.50;90.20;;;;;;4979118;28;20073;-73
2023/07/27 04:51:57;;;;;;;6.90;6.20;;;23.60;90.30;;;;;;4979841;28;20057;-72
2023/07/27 04:54:23;;;;;;;7.50;6.80;;;23.60;90.20;;;;;;4978488;28;20072;-72
2023/07/27 04:56:49;;;;;;;6.90;6.18;;;23.60;90.30;;;;;;4963869;28;20038;-72
2023/07/27 04:59:15;;;;;;;7.82;6.20;;;23.60;90.40;;;;;;4979573;28;20413;-72
2023/07/27 05:01:41;;;;;;;9.23;6.47;;;23.60;90.40;;;;;;4967236;28;20030;-72
2023/07/27 05:04:07;;;;;;;8.13;6.88;;;23.60;90.30;;;;;;4980063;28;20038;-73
2023/07/27 05:06:34;;;;;;;7.55;6.63;;;23.60;90.40;;;;;;4980716;28;20035;-72
2023/07/27 05:09:00;;;;;;;7.60;6.82;;;23.60;90.30;;;;;;4979611;28;20029;-72
2023/07/27 05:11:28;;;;;;;8.65;7.57;;;23.60;90.20;;;;;;4982493;28;20141;-71
2023/07/27 05:13:54;;;;;;;7.00;6.30;;;23.60;90.00;;;;;;4982414;28;20133;-72
2023/07/27 05:16:19;;;;;;;7.65;6.60;;;23.60;90.10;;;;;;4983459;28;20129;-72
2023/07/27 05:18:45;;;;;;;8.15;7.18;;;23.70;90.20;;;;;;4984119;28;20027;-72
2023/07/27 05:21:12;;;;;;;7.32;6.53;;;23.80;90.20;;;;;;4983267;28;20026;-72
2023/07/27 05:23:37;;;;;;;7.50;6.55;;;23.80;90.30;;;;;;4983365;28;20031;-72
2023/07/27 05:26:05;;;;;;;7.57;6.63;;;23.80;90.30;;;;;;4982255;28;20045;-72
2023/07/27 05:28:31;;;;;;;7.55;6.80;;;23.80;90.20;;;;;;4984303;28;20037;-72
2023/07/27 05:30:57;;;;;;;7.85;6.50;;;23.80;90.00;;;;;;4982211;28;20034;-72
2023/07/27 05:33:24;;;;;;;7.93;7.03;;;23.80;90.10;;;;;;4982050;28;20156;-72
2023/07/27 05:35:50;;;;;;;6.93;6.22;;;23.80;90.10;;;;;;4981837;28;20040;-72
2023/07/27 05:38:19;;;;;;;7.30;6.60;;;23.80;90.10;;;;;;4979622;28;20461;-72
2023/07/27 05:40:45;;;;;;;6.95;6.32;;;23.80;90.00;;;;;;4981479;28;20046;-72
2023/07/27 05:43:11;;;;;;;7.22;6.45;;;23.80;90.10;;;;;;4983003;28;20555;-72
2023/07/27 05:45:38;;;;;;;7.95;7.13;;;23.80;90.10;;;;;;4983350;28;20034;-72
2023/07/27 05:48:05;;;;;;;6.78;5.97;;;23.80;90.10;;;;;;4982905;28;20740;-72
2023/07/27 05:50:32;;;;;;;8.13;7.00;;;23.80;90.10;;;;;;4983473;28;20460;-72
2023/07/27 05:52:58;;;;;;;7.47;6.78;;;23.80;90.00;;;;;;4982792;28;20089;-72
2023/07/27 05:55:24;;;;;;;8.20;6.80;;;23.80;89.80;;;;;;4981316;28;20046;-72
2023/07/27 05:57:50;;;;;;;7.75;6.53;;;23.80;89.60;;;;;;4981932;28;20044;-72
2023/07/27 06:00:16;;;;;;;6.90;6.10;;;23.80;89.40;;;;;;4982569;28;20149;-73
2023/07/27 06:02:42;;;;;;;7.72;5.90;;;23.90;89.30;;;;;;4982923;28;20041;-71
2023/07/27 06:05:09;;;;;;;9.15;6.55;;;24.00;89.50;;;;;;4982918;28;20471;-72
2023/07/27 06:07:35;;;;;;;6.25;5.15;;;24.10;89.70;;;;;;4984673;28;20461;-72
2023/07/27 06:10:01;;;;;;;5.88;5.18;;;24.20;89.70;;;;;;4981602;28;20031;-72
2023/07/27 06:12:27;;;;;;;6.80;5.93;;;24.40;89.70;;;;;;4981624;28;20035;-72
2023/07/27 06:14:52;;;;;;;6.32;5.72;;;24.60;89.20;;;;;;4983157;28;20043;-72
2023/07/27 06:17:18;;;;;;;8.40;5.95;;;24.60;88.60;;;;;;4981771;28;20105;-72
2023/07/27 06:19:44;;;;;;;9.13;5.75;;;24.80;88.50;;;;;;4980464;28;20548;-73
2023/07/27 06:22:10;;;;;;;6.07;4.97;;;25.00;88.40;;;;;;4982035;28;20066;-73
2023/07/27 06:24:37;;;;;;;5.80;5.22;;;25.20;88.30;;;;;;4981496;28;20046;-72
2023/07/27 06:27:03;;;;;;;4.85;4.45;;;25.40;88.00;;;;;;4981529;28;20318;-73
2023/07/27 06:29:30;;;;;;;5.10;4.70;;;25.60;88.30;;;;;;4981962;28;20050;-72
2023/07/27 06:31:56;;;;;;;5.95;5.32;;;25.70;87.70;;;;;;4978424;28;20099;-74
2023/07/27 06:34:22;;;;;;;4.97;4.57;;;25.80;82.60;;;;;;4981094;28;20136;-73
2023/07/27 06:36:49;;;;;;;6.55;4.60;;;26.00;83.50;;;;;;4981989;28;20153;-73
2023/07/27 06:39:15;;;;;;;5.22;4.15;;;26.10;85.10;;;;;;4982254;28;20122;-72
2023/07/27 06:41:41;;;;;;;4.78;4.30;;;26.20;85.10;;;;;;4983890;28;20124;-72
2023/07/27 06:44:07;;;;;;;5.10;4.30;;;26.30;84.60;;;;;;4981234;28;20047;-72
2023/07/27 06:46:33;;;;;;;4.97;4.50;;;26.40;84.40;;;;;;4982987;28;20117;-73
2023/07/27 06:48:59;;;;;;;5.97;4.55;;;26.50;83.80;;;;;;4981051;28;20030;-72
2023/07/27 06:51:25;;;;;;;5.43;4.60;;;26.60;83.10;;;;;;4982330;28;20104;-73
2023/07/27 06:53:51;;;;;;;5.45;4.20;;;26.70;82.20;;;;;;4979474;28;20509;-72
2023/07/27 06:56:17;;;;;;;6.20;4.30;;;26.70;81.00;;;;;;4982923;28;20034;-72
2023/07/27 06:58:43;;;;;;;8.65;4.45;;;26.80;80.50;;;;;;4982942;28;20035;-72
2023/07/27 07:01:10;;;;;;;5.88;4.00;;;26.90;80.10;;;;;;4979665;28;20038;-72
2023/07/27 07:03:36;;;;;;;5.38;3.97;;;26.90;79.50;;;;;;4980063;28;20073;-71
2023/07/27 07:06:02;;;;;;;7.30;4.65;;;26.90;78.20;;;;;;4981041;28;20489;-71
2023/07/27 07:08:29;;;;;;;5.45;4.30;;;27.00;77.10;;;;;;4980341;28;20492;-71
2023/07/27 07:10:55;;;;;;;6.60;4.43;;;27.00;76.20;;;;;;4982041;28;20039;-72
2023/07/27 07:13:21;;;;;;;5.13;3.97;;;27.00;76.60;;;;;;4979912;28;20100;-72
2023/07/27 07:15:49;;;;;;;4.40;4.00;;;27.00;76.90;;;;;;4981202;28;20069;-82
2023/07/27 07:18:15;;;;;;;9.40;5.88;;;27.10;76.70;;;;;;4979974;28;20132;-77
2023/07/27 07:20:41;;;;;;;5.60;4.28;;;26.90;72.30;;;;;;4979617;28;20083;-77
2023/07/27 07:23:07;;;;;;;5.82;4.40;;;26.80;73.30;;;;;;4979110;28;20049;-75
2023/07/27 07:25:34;;;;;;;7.13;5.32;;;26.90;71.20;;;;;;4982208;28;20039;-76
2023/07/27 07:28:00;;;;;;;7.15;5.35;;;26.70;66.80;;;;;;4981894;28;20031;-78
2023/07/27 07:30:25;;;;;;;6.63;4.60;;;26.40;67.80;;;;;;4979591;28;20634;-76
2023/07/27 07:32:52;;;;;;;5.78;5.03;;;26.40;69.30;;;;;;4981718;28;20041;-78
2023/07/27 07:35:18;;;;;;;6.32;4.90;;;26.40;70.70;;;;;;4979337;28;20035;-80
2023/07/27 07:37:44;;;;;;;7.07;5.32;;;26.40;68.80;;;;;;4981031;28;20236;-75
2023/07/27 07:40:10;;;;;;;6.30;5.10;;;26.30;69.70;;;;;;4981420;28;20030;-76
2023/07/27 07:42:37;;;;;;;8.27;4.95;;;26.20;68.20;;;;;;4982580;28;20038;-77
2023/07/27 07:45:03;;;;;;;7.60;4.78;;;26.30;69.30;;;;;;4984113;28;20404;-76
2023/07/27 07:47:30;;;;;;;4.90;4.43;;;26.50;69.10;;;;;;4980204;28;20045;-77
2023/07/27 07:49:57;;;;;;;6.53;5.05;;;26.40;67.60;;;;;;4980983;28;20120;-76
2023/07/27 07:52:23;;;;;;;4.40;4.00;;;26.40;69.20;;;;;;4982022;28;20089;-74
2023/07/27 07:54:50;;;;;;;5.15;4.60;;;26.40;71.80;;;;;;4978760;28;20049;-73
2023/07/27 07:57:19;;;;;;;9.25;4.60;;;26.50;67.10;;;;;;4983979;28;20334;-73
2023/07/27 07:59:45;;;;;;;4.68;4.18;;;26.20;66.60;;;;;;4983663;28;20041;-73
2023/07/27 08:02:11;;;;;;;5.47;4.20;;;26.30;68.60;;;;;;4981536;28;20437;-72
2023/07/27 08:04:38;;;;;;;7.03;4.75;;;26.40;72.10;;;;;;4982742;28;20038;-72
2023/07/27 08:07:04;;;;;;;7.10;4.25;;;26.20;68.10;;;;;;4984445;28;20043;-75
2023/07/27 08:09:31;;;;;;;5.38;4.47;;;26.10;68.80;;;;;;4981752;28;20057;-73
2023/07/27 08:11:57;;;;;;;11.23;4.32;;;26.10;68.90;;;;;;4983122;28;20027;-73
2023/07/27 08:14:24;;;;;;;5.38;4.43;;;26.20;72.00;;;;;;4982423;28;20030;-72
2023/07/27 08:16:50;;;;;;;6.72;4.30;;;26.20;68.50;;;;;;4983287;28;20050;-73
2023/07/27 08:19:16;;;;;;;6.15;3.85;;;26.20;67.60;;;;;;4981491;28;20039;-73
2023/07/27 08:21:42;;;;;;;4.50;3.83;;;26.20;67.50;;;;;;4984684;28;20030;-73
2023/07/27 08:24:08;;;;;;;5.82;4.22;;;26.20;68.30;;;;;;4982506;28;20031;-73
2023/07/27 08:26:34;;;;;;;5.13;3.92;;;26.30;67.40;;;;;;4982309;28;20038;-73
2023/07/27 08:29:00;;;;;;;4.90;4.00;;;26.30;68.90;;;;;;4983070;28;20031;-72
2023/07/27 08:31:27;;;;;;;5.15;4.22;;;26.30;67.90;;;;;;4981033;28;20465;-72
2023/07/27 08:33:54;;;;;;;6.30;3.80;;;26.20;67.70;;;;;;4982045;28;20196;-72
2023/07/27 08:36:20;;;;;;;5.85;4.00;;;26.20;67.20;;;;;;4981718;28;20109;-72
2023/07/27 08:38:46;;;;;;;6.50;4.00;;;26.20;68.60;;;;;;4982260;28;20058;-71
2023/07/27 08:41:12;;;;;;;5.43;3.38;;;26.30;67.40;;;;;;4984452;28;20037;-75
2023/07/27 08:43:38;;;;;;;5.28;3.20;;;26.10;64.70;;;;;;4982416;28;20034;-72
2023/07/27 08:46:05;;;;;;;3.88;3.03;;;26.10;63.90;;;;;;4984952;28;20034;-76
2023/07/27 08:48:31;;;;;;;5.05;2.60;;;26.10;64.90;;;;;;4984844;28;20569;-74
2023/07/27 08:50:58;;;;;;;4.75;3.13;;;26.10;62.80;;;;;;4988297;28;20452;-75
2023/07/27 08:53:28;;;;;;;5.50;3.40;;;26.10;63.90;;;;;;5014867;28;20133;-73
2023/07/27 08:55:54;;;;;;;5.13;3.58;;;26.00;63.70;;;;;;4985705;28;20044;-73
2023/07/27 08:58:20;;;;;;;4.55;3.30;;;26.00;64.40;;;;;;4985297;28;20038;-73
2023/07/27 09:00:46;;;;;;;4.63;3.40;;;25.90;64.10;;;;;;4986929;28;20030;-74
2023/07/27 09:03:12;;;;;;;4.25;3.42;;;26.00;66.60;;;;;;4987485;28;20031;-74
2023/07/27 09:05:41;;;;;;;3.80;3.50;;;26.00;66.00;;;;;;4985757;28;20041;-73
2023/07/27 09:08:10;;;;;;;5.70;3.53;;;26.10;65.90;;;;;;5001080;28;20034;-73
2023/07/27 09:10:37;;;;;;;7.90;4.15;;;26.00;66.10;;;;;;4986044;28;20031;-73
2023/07/27 09:13:03;;;;;;;6.80;4.10;;;26.00;64.80;;;;;;5001223;28;20467;-73
2023/07/27 09:15:30;;;;;;;4.22;3.15;;;25.90;64.30;;;;;;4985059;28;20034;-73
2023/07/27 09:17:58;;;;;;;3.75;3.38;;;25.90;64.70;;;;;;4988340;28;20050;-73
2023/07/27 09:20:31;;;;;;;4.75;3.40;;;26.00;64.10;;;;;;4986510;28;20132;-73
2023/07/27 09:22:57;;;;;;;5.53;3.65;;;25.90;64.50;;;;;;4986077;28;20038;-73
2023/07/27 09:25:23;;;;;;;4.70;3.58;;;25.90;66.10;;;;;;4985321;28;20153;-73
2023/07/27 09:27:54;;;;;;;3.88;3.42;;;26.00;66.40;;;;;;4986465;28;20056;-72
2023/07/27 09:30:22;;;;;;;3.42;3.13;;;26.10;66.30;;;;;;4986525;28;20030;-75
2023/07/27 09:32:49;;;;;;;4.30;3.90;;;26.00;65.00;;;;;;4984927;28;20039;-74
2023/07/27 09:35:16;;;;;;;4.65;4.20;;;26.10;65.90;;;;;;4984644;28;20038;-74
2023/07/27 09:37:44;;;;;;;5.15;3.90;;;25.90;62.90;;;;;;4983346;28;20587;-75
2023/07/27 09:40:19;;;;;;;4.10;3.70;;;25.90;63.40;;;;;;4987089;28;20435;-74
2023/07/27 09:42:46;;;;;;;8.88;7.97;;;25.90;65.90;;;;;;4986231;28;20132;-75
2023/07/27 09:45:13;;;;;;;6.45;5.82;;;25.90;66.50;;;;;;4984187;28;20038;-74
2023/07/27 09:47:40;;;;;;;5.72;5.10;;;25.90;65.80;;;;;;4984953;28;20069;-75
2023/07/27 09:50:09;;;;;;;5.03;4.15;;;25.90;67.10;;;;;;4986559;28;20126;-75
2023/07/27 09:52:37;;;;;;;5.47;4.15;;;25.90;67.10;;;;;;4985549;28;20043;-75
2023/07/27 09:55:04;;;;;;;6.32;4.45;;;26.00;65.60;;;;;;4999270;28;20053;-75
2023/07/27 09:57:30;;;;;;;4.38;3.97;;;25.90;65.30;;;;;;4983496;28;20037;-75
2023/07/27 09:59:57;;;;;;;5.18;4.35;;;25.90;64.80;;;;;;4984688;28;20026;-75
2023/07/27 10:02:23;;;;;;;6.43;5.03;;;25.90;66.30;;;;;;4985483;28;20034;-75
2023/07/27 10:04:50;;;;;;;9.68;4.88;;;25.80;66.40;;;;;;4985760;28;20180;-75
2023/07/27 10:07:20;;;;;;;5.90;4.78;;;25.80;67.30;;;;;;4984783;28;20460;-75
2023/07/27 10:09:46;;;;;;;6.80;4.65;;;25.90;67.20;;;;;;4983627;28;20047;-74
2023/07/27 10:12:29;;;;;;;5.35;4.85;;;25.90;67.60;;;;;;4985320;28;20216;-74
2023/07/27 10:15:18;;;;;;;7.10;5.10;;;25.80;64.90;;;;;;4984855;28;20034;-74
2023/07/27 10:18:14;;;;;;;6.40;5.20;;;25.80;66.30;;;;;;4985147;28;20353;-73
2023/07/27 10:20:40;;;;;;;7.18;5.20;;;25.80;67.10;;;;;;4984024;28;20104;-75
2023/07/27 10:23:19;;;;;;;7.18;5.35;;;25.80;67.30;;;;;;4983329;28;20304;-75
2023/07/27 10:25:57;;;;;;;6.60;5.63;;;25.70;66.80;;;;;;4984378;28;20045;-75
2023/07/27 10:28:34;;;;;;;8.57;5.15;;;25.70;67.90;;;;;;4983945;28;21416;-75
2023/07/27 10:31:15;;;;;;;7.47;5.47;;;25.70;67.50;;;;;;4986205;28;20038;-74
2023/07/27 10:34:08;;;;;;;6.82;5.05;;;25.70;67.20;;;;;;4984064;28;20026;-74
2023/07/27 10:36:52;;;;;;;6.15;5.28;;;25.70;66.20;;;;;;4983515;28;20054;-74
2023/07/27 10:39:30;;;;;;;7.97;5.00;;;25.70;66.90;;;;;;4985803;28;20041;-74
2023/07/27 10:42:06;;;;;;;6.22;5.30;;;25.60;66.40;;;;;;4982824;28;20069;-75
2023/07/27 10:44:55;;;;;;;6.32;5.13;;;25.50;66.20;;;;;;4985205;28;20031;-75
2023/07/27 10:47:31;;;;;;;8.07;5.28;;;25.60;66.80;;;;;;4984300;28;20064;-75
2023/07/27 10:49:59;;;;;;;6.80;5.07;;;25.60;66.00;;;;;;4983555;28;20405;-75
2023/07/27 10:52:33;;;;;;;6.22;4.88;;;25.70;65.90;;;;;;4984892;28;20034;-75
2023/07/27 10:55:00;;;;;;;7.95;4.93;;;25.80;65.50;;;;;;4985102;28;20104;-75
2023/07/27 10:57:28;;;;;;;7.03;5.50;;;25.70;65.20;;;;;;4984486;28;20042;-76
2023/07/27 10:59:54;;;;;;;5.40;4.68;;;25.60;65.80;;;;;;4985710;28;20038;-77
2023/07/27 11:02:23;;;;;;;4.68;4.20;;;25.70;65.70;;;;;;4984962;28;20038;-73
2023/07/27 11:04:55;;;;;;;5.75;4.60;;;25.70;65.10;;;;;;4984998;28;20035;-74
2023/07/27 11:07:33;;;;;;;5.85;4.95;;;25.70;64.70;;;;;;4984089;28;21119;-75
2023/07/27 11:10:28;;;;;;;8.32;5.47;;;25.60;66.80;;;;;;4984702;28;20030;-76
2023/07/27 11:12:55;;;;;;;8.20;4.78;;;25.70;68.30;;;;;;4986013;28;20096;-75
2023/07/27 11:15:23;;;;;;;9.05;4.75;;;25.70;68.50;;;;;;4986915;28;20045;-76
2023/07/27 11:17:53;;;;;;;6.10;5.25;;;25.70;68.00;;;;;;4983557;28;20544;-74
2023/07/27 11:20:21;;;;;;;5.35;4.75;;;25.70;67.60;;;;;;4984126;28;20041;-77
2023/07/27 11:22:48;;;;;;;7.40;5.10;;;25.70;67.50;;;;;;4985283;28;20391;-75
2023/07/27 11:25:14;;;;;;;6.55;5.43;;;25.70;68.20;;;;;;4983352;28;20038;-76
2023/07/27 11:27:40;;;;;;;7.50;4.88;;;25.60;68.60;;;;;;4983721;28;20041;-75
2023/07/27 11:30:16;;;;;;;6.82;5.25;;;25.60;69.70;;;;;;4985656;28;20026;-75
2023/07/27 11:32:42;;;;;;;6.05;4.82;;;25.60;68.10;;;;;;4983214;28;20060;-76
2023/07/27 11:35:08;;;;;;;6.38;5.10;;;25.50;67.80;;;;;;4983810;28;20042;-76
2023/07/27 11:37:34;;;;;;;6.30;5.70;;;25.40;68.20;;;;;;4983137;28;20365;-76
2023/07/27 11:40:00;;;;;;;8.63;5.57;;;25.50;69.10;;;;;;4984839;28;20414;-76
2023/07/27 11:42:28;;;;;;;5.22;4.60;;;25.50;68.70;;;;;;4984806;28;20022;-74
2023/07/27 11:44:57;;;;;;;5.28;4.78;;;25.60;69.20;;;;;;4983528;28;20125;-74
2023/07/27 11:47:24;;;;;;;5.57;5.00;;;25.70;69.50;;;;;;4983864;28;20061;-76
2023/07/27 11:49:55;;;;;;;5.47;4.88;;;25.50;68.20;;;;;;4984511;28;20046;-76
2023/07/27 11:52:21;;;;;;;5.88;5.32;;;25.50;69.00;;;;;;4984284;28;20045;-75
2023/07/27 11:54:52;;;;;;;5.70;5.20;;;25.60;69.00;;;;;;4982987;28;20035;-75
2023/07/27 11:57:18;;;;;;;6.93;5.10;;;25.60;69.60;;;;;;4983783;28;20030;-75
2023/07/27 12:00:06;;;;;;;6.22;4.75;;;25.60;68.80;;;;;;4983410;28;20069;-77
2023/07/27 12:02:46;;;;;;;5.88;5.38;;;25.60;68.80;;;;;;4998393;28;20035;-76
2023/07/27 12:05:14;;;;;;;6.53;5.20;;;25.60;69.40;;;;;;4967229;28;20516;-76
2023/07/27 12:07:41;;;;;;;7.05;5.60;;;25.60;70.90;;;;;;4981468;28;20046;-76
2023/07/27 12:10:17;;;;;;;6.20;5.20;;;25.70;70.10;;;;;;4984189;28;20046;-75
2023/07/27 12:13:03;;;;;;;8.35;5.32;;;25.70;70.10;;;;;;4982628;28;20037;-75
2023/07/27 12:15:34;;;;;;;5.75;5.10;;;25.60;70.30;;;;;;4983571;28;20035;-73
2023/07/27 12:18:03;;;;;;;8.68;4.97;;;25.70;70.80;;;;;;4982276;28;20141;-75
2023/07/27 12:20:31;;;;;;;5.53;5.03;;;25.60;70.00;;;;;;5012186;28;20038;-75
2023/07/27 12:22:58;;;;;;;5.55;4.95;;;25.50;70.20;;;;;;4987178;28;20517;-75
2023/07/27 12:25:27;;;;;;;6.30;5.40;;;25.60;70.50;;;;;;4989690;28;20035;-75
2023/07/27 12:27:54;;;;;;;5.35;4.88;;;25.70;72.50;;;;;;4986683;28;20038;-75
2023/07/27 12:30:20;;;;;;;7.63;5.38;;;25.70;70.90;;;;;;4985169;28;20108;-74
2023/07/27 12:32:47;;;;;;;5.43;4.93;;;25.80;71.00;;;;;;4985417;28;20612;-75
2023/07/27 12:35:13;;;;;;;6.53;5.10;;;25.70;70.30;;;;;;4985182;28;20087;-75
2023/07/27 12:37:39;;;;;;;6.60;5.53;;;25.60;70.50;;;;;;4985189;28;20069;-75
2023/07/27 12:40:06;;;;;;;5.93;5.32;;;25.70;70.40;;;;;;4985011;28;20033;-75
2023/07/27 12:42:32;;;;;;;9.13;5.75;;;25.70;70.30;;;;;;4985617;28;20030;-75
2023/07/27 12:44:58;;;;;;;7.72;5.80;;;25.70;71.90;;;;;;4987172;28;20045;-76
2023/07/27 12:47:24;;;;;;;7.50;5.43;;;25.70;71.10;;;;;;4982546;28;20046;-76
2023/07/27 12:49:50;;;;;;;5.85;4.80;;;25.60;70.40;;;;;;4985240;28;20067;-75
2023/07/27 12:52:15;;;;;;;6.20;5.28;;;25.50;71.10;;;;;;4983685;28;20552;-76